Time;durP1;ratioP1;P1;durP2;ratioP2;P2;SDS_P1;SDS_P2;PMS_P1;PMS_P2;Temp;Humidity;BMP_temperature;BMP_pressure;BME280_temperature;BME280_humidity;BME280_pressure;Samples;Min_cycle;Max_cycle;Signal;HPM_P1;HPM_P2
2023/07/15 00:01:21;;;;;;;5.43;1.10;;;23.90;99.90;;;;;;5093692;23;20157;-87
2023/07/15 00:03:21;;;;;;;7.20;1.10;;;23.90;99.90;;;;;;5092674;23;20232;-88
2023/07/15 00:05:28;;;;;;;2.10;1.00;;;23.90;99.90;;;;;;5093277;23;20161;-86
2023/07/15 00:07:29;;;;;;;6.88;1.10;;;24.00;99.90;;;;;;5069089;23;20192;-87
2023/07/15 00:09:30;;;;;;;2.65;0.80;;;24.00;99.90;;;;;;5093665;23;20176;-86
2023/07/15 00:11:37;;;;;;;2.42;0.90;;;24.10;99.90;;;;;;5093656;23;20152;-87
2023/07/15 00:13:38;;;;;;;2.38;1.00;;;24.10;99.90;;;;;;5068983;23;20161;-86
2023/07/15 00:15:40;;;;;;;2.45;1.10;;;24.20;99.90;;;;;;5069127;23;20150;-87
2023/07/15 00:17:41;;;;;;;5.82;0.90;;;24.20;99.90;;;;;;5069004;23;20150;-87
2023/07/15 00:19:41;;;;;;;5.43;1.10;;;24.30;99.90;;;;;;5119090;23;20168;-87
2023/07/15 00:21:42;;;;;;;4.38;1.00;;;24.30;99.90;;;;;;5068846;23;20161;-86
2023/07/15 00:23:43;;;;;;;1.60;0.70;;;24.30;99.90;;;;;;5093177;23;20473;-87
2023/07/15 00:25:44;;;;;;;6.47;1.27;;;24.30;99.90;;;;;;5093526;23;20572;-87
2023/07/15 00:27:46;;;;;;;5.82;1.25;;;24.30;99.90;;;;;;5068947;23;20193;-87
2023/07/15 00:29:47;;;;;;;2.05;1.10;;;24.30;99.90;;;;;;5093177;23;20172;-87
2023/07/15 00:31:48;;;;;;;8.75;1.27;;;24.30;99.90;;;;;;5068946;23;20173;-87
2023/07/15 00:33:49;;;;;;;3.13;1.48;;;24.40;99.90;;;;;;5068929;23;20161;-86
2023/07/15 00:35:50;;;;;;;5.60;1.20;;;24.50;99.90;;;;;;5068812;23;20576;-87
2023/07/15 00:37:51;;;;;;;5.22;1.20;;;24.50;99.90;;;;;;5092872;23;20161;-87
2023/07/15 00:39:51;;;;;;;4.82;1.05;;;24.30;99.90;;;;;;5093343;23;20285;-86
2023/07/15 00:41:55;;;;;;;9.00;1.15;;;24.20;99.90;;;;;;5093205;23;20200;-86
2023/07/15 00:43:59;;;;;;;1.77;1.05;;;24.10;99.90;;;;;;5044716;23;20190;-86
2023/07/15 00:46:18;;;;;;;3.63;1.38;;;23.90;99.90;;;;;;5068596;23;20149;-86
2023/07/15 00:48:26;;;;;;;11.98;1.35;;;23.90;99.90;;;;;;5068651;23;20260;-86
2023/07/15 00:50:27;;;;;;;6.88;1.40;;;23.80;99.90;;;;;;5068868;23;20496;-86
2023/07/15 00:52:30;;;;;;;4.53;1.38;;;23.80;99.90;;;;;;5068782;23;20153;-87
2023/07/15 00:54:36;;;;;;;2.80;1.13;;;23.70;99.90;;;;;;5068699;23;20716;-86
2023/07/15 00:56:38;;;;;;;11.85;1.23;;;23.60;99.90;;;;;;5068689;23;20545;-87
2023/07/15 00:58:40;;;;;;;6.28;1.25;;;23.60;99.90;;;;;;5092816;23;20178;-87
2023/07/15 01:00:41;;;;;;;2.65;1.30;;;23.60;99.90;;;;;;5068669;23;20153;-86
2023/07/15 01:02:42;;;;;;;3.50;1.15;;;23.60;99.90;;;;;;5092946;23;20485;-87
2023/07/15 01:04:42;;;;;;;5.00;1.00;;;23.50;99.90;;;;;;5068840;23;20549;-87
2023/07/15 01:06:45;;;;;;;6.60;1.30;;;23.50;99.90;;;;;;5093137;23;20157;-86
2023/07/15 01:08:46;;;;;;;1.90;1.20;;;23.40;99.90;;;;;;5068215;23;20197;-86
2023/07/15 01:10:46;;;;;;;5.38;1.08;;;23.40;99.90;;;;;;5092971;23;20477;-86
2023/07/15 01:12:47;;;;;;;5.93;1.42;;;23.40;99.90;;;;;;5092772;23;20148;-86
2023/07/15 01:14:49;;;;;;;6.60;1.00;;;23.40;99.90;;;;;;5093818;23;20180;-86
2023/07/15 01:16:50;;;;;;;4.28;1.02;;;23.30;99.90;;;;;;5070334;23;20208;-86
2023/07/15 01:18:50;;;;;;;4.22;1.00;;;23.30;99.90;;;;;;5069985;23;20570;-86
2023/07/15 01:20:51;;;;;;;3.47;1.20;;;23.20;99.90;;;;;;5094579;23;20608;-87
2023/07/15 01:22:52;;;;;;;5.90;1.02;;;23.00;99.90;;;;;;5070207;23;20149;-87
2023/07/15 01:24:53;;;;;;;2.15;0.90;;;23.00;99.90;;;;;;5094694;23;20160;-86
2023/07/15 01:27:07;;;;;;;7.30;1.17;;;22.90;99.90;;;;;;5118696;23;20148;-87
2023/07/15 01:29:08;;;;;;;2.92;1.10;;;22.90;99.90;;;;;;5069782;23;20195;-87
2023/07/15 01:31:10;;;;;;;2.92;0.93;;;22.80;99.90;;;;;;5094396;23;20273;-87
2023/07/15 01:33:10;;;;;;;8.48;1.08;;;22.80;99.90;;;;;;5070168;23;20154;-87
2023/07/15 01:35:12;;;;;;;8.18;1.20;;;22.80;99.90;;;;;;5094599;23;20524;-87
2023/07/15 01:37:13;;;;;;;6.22;1.20;;;22.60;99.90;;;;;;5070038;23;20150;-87
2023/07/15 01:39:15;;;;;;;4.50;0.93;;;22.50;99.90;;;;;;5120529;23;20172;-86
2023/07/15 01:41:17;;;;;;;6.13;1.67;;;22.40;99.90;;;;;;5070141;23;20150;-87
2023/07/15 01:43:18;;;;;;;2.88;1.08;;;22.40;99.90;;;;;;5070027;23;20529;-88
2023/07/15 01:45:20;;;;;;;2.67;1.00;;;22.30;99.90;;;;;;5070173;23;20156;-86
2023/07/15 01:47:21;;;;;;;10.88;1.23;;;22.30;99.90;;;;;;5094499;23;20188;-87
2023/07/15 01:49:21;;;;;;;3.50;1.20;;;22.30;99.90;;;;;;5070031;23;20185;-87
2023/07/15 01:51:22;;;;;;;4.78;1.10;;;22.30;99.90;;;;;;5119150;23;20148;-86
2023/07/15 01:53:23;;;;;;;4.47;1.10;;;22.30;99.90;;;;;;5069966;23;20169;-86
2023/07/15 01:55:23;;;;;;;6.10;1.20;;;22.30;99.90;;;;;;5120210;23;20148;-86
2023/07/15 01:57:29;;;;;;;2.33;1.13;;;22.20;99.90;;;;;;5094524;23;20145;-87
2023/07/15 01:59:31;;;;;;;8.75;1.10;;;22.20;99.90;;;;;;5118888;23;20192;-86
2023/07/15 02:01:31;;;;;;;6.57;1.27;;;22.20;99.90;;;;;;5094446;23;20180;-87
2023/07/15 02:03:32;;;;;;;2.47;1.40;;;22.20;99.90;;;;;;5094469;23;20193;-87
2023/07/15 02:05:33;;;;;;;4.63;0.93;;;22.20;99.90;;;;;;5070189;23;20161;-87
2023/07/15 02:07:34;;;;;;;5.82;1.13;;;22.20;99.90;;;;;;5069865;23;20193;-86
2023/07/15 02:09:35;;;;;;;5.30;1.10;;;22.10;99.90;;;;;;5094229;23;20172;-86
2023/07/15 02:11:36;;;;;;;5.68;1.00;;;22.00;99.90;;;;;;5094568;23;20627;-87
2023/07/15 02:13:37;;;;;;;4.82;1.25;;;21.90;99.90;;;;;;5069948;23;20156;-87
2023/07/15 02:15:38;;;;;;;3.85;1.20;;;21.80;99.90;;;;;;5094213;23;20492;-87
2023/07/15 02:17:39;;;;;;;5.10;1.20;;;21.80;99.90;;;;;;5069763;23;20145;-87
2023/07/15 02:19:40;;;;;;;3.85;1.20;;;21.80;99.90;;;;;;5069970;23;20240;-86
2023/07/15 02:21:40;;;;;;;4.50;1.20;;;21.70;99.90;;;;;;5070021;23;20145;-87
2023/07/15 05:08:31;;;;;;;7.78;1.40;;;22.60;99.90;;;;;;5128230;22;20215;-94
2023/07/15 05:10:33;;;;;;;3.10;1.55;;;22.60;99.90;;;;;;5077433;23;20169;-92
2023/07/15 05:12:36;;;;;;;8.98;1.40;;;22.60;99.90;;;;;;5075174;23;20237;-94
2023/07/15 05:14:37;;;;;;;3.03;1.45;;;22.70;99.90;;;;;;5070401;23;20161;-94
2023/07/15 05:16:43;;;;;;;5.15;1.42;;;22.70;99.90;;;;;;5095381;23;20153;-92
2023/07/15 05:18:43;;;;;;;4.10;1.50;;;22.70;99.90;;;;;;5074470;23;20165;-94
2023/07/15 05:20:44;;;;;;;5.57;1.50;;;22.70;99.90;;;;;;5074540;23;20244;-92
2023/07/15 05:22:45;;;;;;;3.42;1.30;;;22.70;99.90;;;;;;5084780;23;20157;-93
2023/07/15 05:24:48;;;;;;;7.57;1.35;;;22.70;99.90;;;;;;5075281;23;20157;-94
2023/07/15 05:26:48;;;;;;;8.13;1.70;;;22.80;99.90;;;;;;5080452;23;20157;-93
2023/07/15 05:28:49;;;;;;;4.25;1.45;;;22.80;99.90;;;;;;5101839;23;20725;-93
2023/07/15 05:30:50;;;;;;;9.05;1.63;;;22.90;99.90;;;;;;5076780;23;20154;-93
2023/07/15 05:32:51;;;;;;;2.75;1.38;;;22.80;99.90;;;;;;5082315;23;20477;-93
2023/07/15 05:34:52;;;;;;;3.17;1.35;;;22.70;99.90;;;;;;5097699;23;20157;-93
2023/07/15 05:37:08;;;;;;;6.85;1.38;;;22.80;99.90;;;;;;5096693;23;20217;-94
2023/07/15 05:39:09;;;;;;;6.38;1.42;;;22.80;99.90;;;;;;5069739;23;20567;-94
2023/07/15 05:41:13;;;;;;;3.47;1.30;;;22.90;99.90;;;;;;5073725;23;20141;-94
2023/07/15 05:43:14;;;;;;;2.95;1.20;;;23.10;99.90;;;;;;5075791;23;20265;-93
2023/07/15 05:45:15;;;;;;;5.03;1.38;;;23.20;99.90;;;;;;5094334;23;20149;-93
2023/07/15 05:47:16;;;;;;;6.38;1.30;;;23.30;99.90;;;;;;5069754;23;20696;-93
2023/07/15 05:49:18;;;;;;;3.33;1.20;;;23.20;99.90;;;;;;5070466;23;20180;-93
2023/07/15 05:51:19;;;;;;;6.95;1.13;;;23.20;99.90;;;;;;5070425;23;20161;-93
2023/07/15 05:53:20;;;;;;;3.60;1.17;;;23.30;99.90;;;;;;5094913;23;20157;-92
2023/07/15 05:55:21;;;;;;;4.45;1.30;;;23.50;99.90;;;;;;5045932;23;20165;-93
2023/07/15 05:57:22;;;;;;;5.28;1.23;;;23.70;99.90;;;;;;5070110;23;20598;-93
2023/07/15 05:59:25;;;;;;;3.58;1.13;;;23.90;99.90;;;;;;5068994;23;20268;-93
2023/07/15 06:01:25;;;;;;;5.63;1.20;;;23.80;99.90;;;;;;5071660;23;20158;-93
2023/07/15 06:03:27;;;;;;;4.13;1.25;;;23.60;99.90;;;;;;5096548;23;20157;-93
2023/07/15 06:05:30;;;;;;;2.58;1.08;;;23.60;99.90;;;;;;5080114;23;20153;-93
2023/07/15 06:07:31;;;;;;;5.20;1.35;;;23.70;99.90;;;;;;5074771;23;20229;-94
2023/07/15 06:09:31;;;;;;;4.45;1.20;;;23.70;99.90;;;;;;5096862;23;20172;-93
2023/07/15 06:11:32;;;;;;;4.13;1.00;;;23.90;99.90;;;;;;5095925;23;20169;-94
2023/07/15 06:13:33;;;;;;;5.97;1.27;;;23.80;99.90;;;;;;5072016;23;20590;-93
2023/07/15 06:15:36;;;;;;;3.92;1.13;;;23.90;99.90;;;;;;5072552;23;20208;-94
2023/07/15 06:17:38;;;;;;;7.22;1.20;;;24.10;99.90;;;;;;5071986;23;20152;-93
2023/07/15 06:19:39;;;;;;;4.55;1.20;;;24.20;99.90;;;;;;5071332;23;20708;-93
2023/07/15 06:21:41;;;;;;;2.65;1.00;;;24.20;99.90;;;;;;5072096;23;20150;-94
2023/07/15 06:23:42;;;;;;;2.25;1.05;;;24.10;99.90;;;;;;5071786;23;20238;-93
2023/07/15 06:25:43;;;;;;;2.50;1.10;;;24.20;99.90;;;;;;5096398;23;20149;-94
2023/07/15 06:27:43;;;;;;;3.28;1.20;;;24.30;99.90;;;;;;5096013;23;20569;-93
2023/07/15 06:29:47;;;;;;;2.70;0.90;;;24.40;99.90;;;;;;5071818;23;20232;-92
2023/07/15 06:31:49;;;;;;;4.32;1.20;;;24.50;99.90;;;;;;5071521;23;20149;-92
2023/07/15 06:33:50;;;;;;;5.00;1.10;;;24.40;99.90;;;;;;5096619;23;20235;-92
2023/07/15 06:35:52;;;;;;;3.13;0.98;;;24.50;99.90;;;;;;5096697;23;20153;-94
2023/07/15 06:37:53;;;;;;;3.00;0.93;;;24.60;99.90;;;;;;5071567;23;20492;-94
2023/07/15 06:39:54;;;;;;;3.08;0.80;;;24.60;99.90;;;;;;5096876;23;20180;-93
2023/07/15 06:41:54;;;;;;;4.90;1.15;;;24.40;99.90;;;;;;5071796;23;20216;-94
2023/07/15 06:43:55;;;;;;;4.35;1.10;;;24.30;99.90;;;;;;5095844;23;20149;-92
2023/07/15 06:45:56;;;;;;;7.60;1.25;;;24.30;99.90;;;;;;5072451;23;20164;-93
2023/07/15 06:47:57;;;;;;;6.57;0.95;;;24.10;99.90;;;;;;5071747;23;20192;-94
2023/07/15 06:50:20;;;;;;;2.40;1.00;;;23.90;99.90;;;;;;4231875;27;20555;-92
2023/07/15 06:52:21;;;;;;;8.90;1.30;;;24.20;99.90;;;;;;4198184;28;20175;-93
2023/07/15 06:54:23;;;;;;;3.92;0.98;;;24.30;99.90;;;;;;4197339;28;20167;-93
2023/07/15 06:56:24;;;;;;;1.80;0.82;;;24.50;99.90;;;;;;4197506;28;20564;-92
2023/07/15 06:58:25;;;;;;;11.70;7.65;;;24.50;99.90;;;;;;4208956;28;20833;-94
2023/07/15 07:00:27;;;;;;;2.88;1.10;;;24.60;99.90;;;;;;4180321;28;20180;-94
2023/07/15 07:02:27;;;;;;;2.75;1.00;;;24.90;99.90;;;;;;4180574;28;20171;-94
2023/07/15 07:04:28;;;;;;;3.47;1.10;;;24.80;99.90;;;;;;4196465;28;20658;-92
2023/07/15 07:06:29;;;;;;;5.47;1.40;;;24.60;99.90;;;;;;4180566;28;20250;-94
2023/07/15 07:08:30;;;;;;;5.25;1.13;;;24.80;99.90;;;;;;4180234;28;20238;-94
2023/07/15 07:10:31;;;;;;;6.45;1.23;;;24.90;99.90;;;;;;4181611;28;20175;-94
2023/07/15 07:12:31;;;;;;;4.93;1.10;;;25.10;99.90;;;;;;4180083;28;20267;-94
2023/07/15 07:14:32;;;;;;;6.95;1.08;;;25.20;99.90;;;;;;4196775;28;20174;-92
2023/07/15 07:16:35;;;;;;;4.68;1.10;;;25.30;99.90;;;;;;4197510;28;20209;-94
2023/07/15 07:18:35;;;;;;;6.85;1.27;;;25.40;99.90;;;;;;4185959;28;20179;-92
2023/07/15 07:20:37;;;;;;;4.47;1.10;;;25.30;99.90;;;;;;4192542;28;20202;-92
2023/07/15 07:22:38;;;;;;;5.45;1.10;;;25.30;99.90;;;;;;4197274;28;20163;-94
2023/07/15 07:24:39;;;;;;;5.75;1.20;;;25.10;99.90;;;;;;4179503;28;20265;-93
2023/07/15 07:26:40;;;;;;;2.95;1.10;;;25.00;99.90;;;;;;4195363;28;20207;-92
2023/07/15 07:28:43;;;;;;;4.18;1.20;;;25.20;99.90;;;;;;4178576;28;20211;-93
2023/07/15 07:30:44;;;;;;;4.43;1.00;;;25.10;99.90;;;;;;4195168;28;20321;-93
2023/07/15 07:32:44;;;;;;;3.88;0.93;;;25.00;99.90;;;;;;4195078;28;20175;-92
2023/07/15 07:34:45;;;;;;;4.07;1.10;;;25.10;99.90;;;;;;4178592;28;20254;-94
2023/07/15 07:36:46;;;;;;;3.63;1.00;;;25.20;99.90;;;;;;4178684;28;20176;-93
2023/07/15 07:38:47;;;;;;;8.35;1.08;;;26.10;99.90;;;;;;4178652;28;20278;-93
2023/07/15 07:40:48;;;;;;;3.30;1.20;;;26.80;99.90;;;;;;4178804;28;20176;-93
2023/07/15 07:42:48;;;;;;;4.43;1.27;;;27.80;99.90;;;;;;4179428;28;20198;-94
2023/07/15 07:44:49;;;;;;;4.32;1.10;;;29.70;99.90;;;;;;4178995;28;20183;-93
2023/07/15 07:46:50;;;;;;;3.10;1.00;;;30.30;99.90;;;;;;4195077;28;20230;-93
2023/07/15 07:48:50;;;;;;;2.92;1.02;;;31.20;99.90;;;;;;4194789;28;20222;-93
2023/07/15 07:50:51;;;;;;;6.78;1.20;;;31.10;99.90;;;;;;4178318;28;20242;-93
2023/07/15 07:52:52;;;;;;;2.58;1.10;;;31.20;99.90;;;;;;4178207;28;20176;-94
2023/07/15 07:54:53;;;;;;;3.60;1.17;;;30.80;99.90;;;;;;4177967;28;20163;-93
2023/07/15 07:56:54;;;;;;;4.22;1.00;;;31.20;99.90;;;;;;4178480;28;20183;-93
2023/07/15 07:58:57;;;;;;;3.65;1.30;;;31.40;99.90;;;;;;4177872;28;20257;-92
2023/07/15 08:00:58;;;;;;;3.13;1.20;;;31.40;99.90;;;;;;4170572;28;20226;-93
2023/07/15 08:02:58;;;;;;;3.67;1.10;;;31.70;99.90;;;;;;4183434;28;20250;-93
2023/07/15 08:04:59;;;;;;;2.15;0.93;;;31.10;99.90;;;;;;4167349;28;20180;-91
2023/07/15 08:07:00;;;;;;;4.45;1.20;;;30.20;99.90;;;;;;4166882;28;20203;-93
2023/07/15 08:09:01;;;;;;;6.57;1.20;;;29.70;99.90;;;;;;4166918;28;20257;-92
2023/07/15 08:11:01;;;;;;;2.38;0.90;;;28.80;99.90;;;;;;4167359;28;20171;-93
2023/07/15 08:13:06;;;;;;;3.17;1.20;;;28.20;99.90;;;;;;4168391;28;20266;-91
2023/07/15 08:15:06;;;;;;;7.63;1.00;;;27.70;99.90;;;;;;4166919;28;20214;-93
2023/07/15 08:17:07;;;;;;;4.03;1.10;;;27.10;99.90;;;;;;4166912;28;20168;-95
2023/07/15 08:19:08;;;;;;;4.00;1.25;;;26.50;99.90;;;;;;4183560;28;20187;-92
2023/07/15 08:21:09;;;;;;;6.85;1.30;;;26.30;99.90;;;;;;4167015;28;20592;-93
2023/07/15 08:23:09;;;;;;;2.05;0.95;;;26.10;99.90;;;;;;4185167;22;21414;-88
2023/07/15 08:25:10;;;;;;;6.18;1.40;;;25.80;99.90;;;;;;4166737;28;20176;-89
2023/07/15 08:27:11;;;;;;;4.85;1.08;;;25.80;99.90;;;;;;4166734;28;20164;-89
2023/07/15 08:29:12;;;;;;;3.72;1.15;;;25.80;99.90;;;;;;4161731;28;20204;-88
2023/07/15 08:31:12;;;;;;;3.78;1.38;;;25.70;99.90;;;;;;4166572;28;20168;-88
2023/07/15 08:33:13;;;;;;;5.10;1.13;;;25.50;99.90;;;;;;4182936;28;20184;-88
2023/07/15 08:35:14;;;;;;;5.88;1.20;;;25.40;99.90;;;;;;4182884;28;20171;-88
2023/07/15 08:37:15;;;;;;;8.35;1.00;;;25.50;99.90;;;;;;4166541;28;20199;-88
2023/07/15 08:39:15;;;;;;;4.32;1.00;;;25.60;99.90;;;;;;4166485;28;20191;-88
2023/07/15 08:41:18;;;;;;;7.38;1.38;;;25.50;99.90;;;;;;4166254;28;20187;-88
2023/07/15 08:43:19;;;;;;;9.63;1.40;;;25.80;99.90;;;;;;4166440;28;20160;-87
2023/07/15 08:45:22;;;;;;;5.05;1.38;;;26.20;99.90;;;;;;4182573;28;20270;-90
2023/07/15 08:47:24;;;;;;;4.93;1.13;;;25.90;99.90;;;;;;4166295;28;20608;-88
2023/07/15 08:49:28;;;;;;;4.43;1.48;;;26.00;99.90;;;;;;4199347;28;20222;-88
2023/07/15 08:51:34;;;;;;;4.20;1.25;;;25.80;99.90;;;;;;4182812;28;20624;-87
2023/07/15 08:53:37;;;;;;;3.38;1.20;;;25.80;99.90;;;;;;4199196;28;20179;-88
2023/07/15 08:55:39;;;;;;;4.93;1.25;;;25.80;99.90;;;;;;4182756;28;20176;-88
2023/07/15 08:57:40;;;;;;;3.92;1.00;;;25.70;99.90;;;;;;4182999;28;20250;-92
2023/07/15 08:59:41;;;;;;;5.47;1.15;;;25.70;99.90;;;;;;4166016;28;20683;-88
2023/07/15 09:01:41;;;;;;;5.07;1.55;;;25.50;99.90;;;;;;4166290;28;20168;-88
2023/07/15 09:03:42;;;;;;;3.25;1.58;;;25.50;99.90;;;;;;4166714;28;20226;-87
2023/07/15 09:05:44;;;;;;;7.90;1.60;;;25.60;99.90;;;;;;4182584;28;20172;-88
2023/07/15 09:07:53;;;;;;;5.00;1.50;;;25.30;99.90;;;;;;4166125;28;20172;-88
2023/07/15 09:09:54;;;;;;;4.20;1.20;;;25.00;99.90;;;;;;4182329;28;20365;-87
2023/07/15 09:12:03;;;;;;;4.18;1.30;;;24.80;99.90;;;;;;4165070;28;20537;-88
2023/07/15 09:14:13;;;;;;;11.23;1.63;;;24.70;99.90;;;;;;4182407;28;20182;-86
2023/07/15 09:16:15;;;;;;;5.78;1.60;;;24.70;99.90;;;;;;4182302;28;20250;-87
2023/07/15 09:18:15;;;;;;;9.30;1.65;;;24.80;99.90;;;;;;4165871;28;20203;-87
2023/07/15 09:20:18;;;;;;;6.72;1.45;;;24.70;99.90;;;;;;4165829;28;20164;-87
2023/07/15 09:22:19;;;;;;;4.85;1.40;;;24.60;99.90;;;;;;4165656;28;20273;-87
2023/07/15 09:24:22;;;;;;;3.10;1.48;;;24.60;99.90;;;;;;4165602;28;20271;-87
2023/07/15 09:26:24;;;;;;;7.85;1.60;;;24.40;99.90;;;;;;4198459;28;20706;-86
2023/07/15 09:28:25;;;;;;;7.60;2.00;;;24.30;99.90;;;;;;4181755;28;20293;-87
2023/07/15 09:30:26;;;;;;;5.05;1.92;;;24.30;99.90;;;;;;4181928;28;20274;-87
2023/07/15 09:32:31;;;;;;;5.53;1.58;;;24.50;99.90;;;;;;4165612;28;20169;-87
2023/07/15 09:34:31;;;;;;;4.90;1.70;;;24.80;99.90;;;;;;4182252;28;20179;-87
2023/07/15 09:36:32;;;;;;;7.38;1.60;;;24.80;99.90;;;;;;4181971;28;20227;-87
2023/07/15 09:38:37;;;;;;;6.55;1.48;;;24.90;99.90;;;;;;4165421;28;20672;-87
2023/07/15 09:40:41;;;;;;;6.57;1.65;;;25.10;99.90;;;;;;4181669;28;20171;-87
2023/07/15 09:42:55;;;;;;;10.40;1.50;;;25.50;99.90;;;;;;4181526;28;20184;-87
2023/07/15 09:44:56;;;;;;;4.80;1.42;;;25.90;99.90;;;;;;4181830;28;20167;-86
2023/07/15 09:46:57;;;;;;;3.33;1.42;;;26.20;99.90;;;;;;4165322;28;20318;-87
2023/07/15 09:48:58;;;;;;;5.45;1.63;;;26.40;99.90;;;;;;4165208;28;20215;-86
2023/07/15 09:50:59;;;;;;;7.82;1.30;;;26.60;99.90;;;;;;4165078;28;20191;-87
2023/07/15 09:53:00;;;;;;;8.00;1.50;;;26.30;99.90;;;;;;4165138;28;20164;-87
2023/07/15 09:55:02;;;;;;;3.72;1.58;;;25.90;99.90;;;;;;4165192;28;20220;-87
2023/07/15 09:57:13;;;;;;;3.10;1.38;;;25.60;99.90;;;;;;4165226;28;20176;-86
2023/07/15 09:59:18;;;;;;;8.90;1.40;;;25.60;99.90;;;;;;4181454;28;20698;-87
2023/07/15 10:01:53;;;;;;;6.88;1.27;;;25.60;99.90;;;;;;4181776;28;20643;-86
2023/07/15 10:04:08;;;;;;;9.13;1.55;;;25.20;99.90;;;;;;4181477;28;20171;-88
2023/07/15 10:06:11;;;;;;;5.05;1.95;;;24.50;99.90;;;;;;4181518;28;20225;-88
2023/07/15 10:08:13;;;;;;;4.25;1.40;;;24.10;99.90;;;;;;4165630;28;20760;-88
2023/07/15 10:10:14;;;;;;;4.80;1.42;;;24.20;99.90;;;;;;4181216;28;20250;-89
2023/07/15 10:12:15;;;;;;;5.40;1.20;;;24.20;99.90;;;;;;4182321;28;20505;-89
2023/07/15 10:14:16;;;;;;;3.45;1.15;;;24.40;99.90;;;;;;4181157;28;20175;-89
2023/07/15 10:16:18;;;;;;;6.40;1.50;;;24.40;99.90;;;;;;4164703;28;20174;-89
2023/07/15 10:18:20;;;;;;;4.82;1.80;;;24.40;99.90;;;;;;4164964;28;20283;-89
2023/07/15 10:20:22;;;;;;;9.15;1.50;;;24.60;99.90;;;;;;4181509;28;20568;-89
2023/07/15 10:22:33;;;;;;;4.10;1.27;;;24.80;99.90;;;;;;4164849;28;20176;-89
2023/07/15 10:24:34;;;;;;;3.30;1.23;;;25.60;99.90;;;;;;4180998;28;20206;-88
2023/07/15 10:26:46;;;;;;;6.22;1.67;;;26.10;99.90;;;;;;4182205;28;20168;-88
2023/07/15 10:28:52;;;;;;;2.50;1.00;;;26.40;99.90;;;;;;4197652;28;20221;-86
2023/07/15 10:31:06;;;;;;;3.17;1.10;;;27.10;99.90;;;;;;4181182;28;20528;-88
2023/07/15 10:33:10;;;;;;;2.83;1.33;;;26.90;99.90;;;;;;4164609;28;20179;-87
2023/07/15 10:35:10;;;;;;;4.93;1.27;;;27.00;99.90;;;;;;4180904;28;20171;-87
2023/07/15 10:37:11;;;;;;;2.00;1.27;;;26.80;99.90;;;;;;4180952;28;20644;-87
2023/07/15 10:39:12;;;;;;;2.40;1.20;;;27.10;99.90;;;;;;4164397;28;20275;-88
2023/07/15 10:41:13;;;;;;;7.38;1.23;;;27.00;99.90;;;;;;4164695;28;20184;-94
2023/07/15 10:43:36;;;;;;;6.57;1.30;;;27.20;99.90;;;;;;4197422;28;20167;-87
2023/07/15 10:45:42;;;;;;;5.40;1.20;;;27.50;99.90;;;;;;4197644;28;20277;-86
2023/07/15 10:47:45;;;;;;;4.30;1.33;;;26.80;99.90;;;;;;4197569;28;20220;-89
2023/07/15 10:49:48;;;;;;;4.13;1.60;;;26.80;99.90;;;;;;4180937;28;20215;-90
2023/07/15 10:51:52;;;;;;;2.72;1.20;;;26.80;99.90;;;;;;4164558;28;20164;-88
2023/07/15 10:53:53;;;;;;;5.50;1.33;;;26.90;99.90;;;;;;4164843;28;20735;-89
2023/07/15 10:56:02;;;;;;;8.95;1.80;;;26.70;99.90;;;;;;4180972;28;20178;-90
2023/07/15 10:58:07;;;;;;;5.38;1.40;;;26.70;99.90;;;;;;4164486;28;20278;-89
2023/07/15 11:00:09;;;;;;;6.22;1.48;;;26.60;99.90;;;;;;4181874;28;20195;-90
2023/07/15 11:02:11;;;;;;;5.20;1.20;;;26.60;99.90;;;;;;4180856;28;20179;-88
2023/07/15 11:04:13;;;;;;;9.20;1.60;;;26.40;99.90;;;;;;4164477;28;20176;-89
2023/07/15 11:06:13;;;;;;;4.28;1.48;;;26.50;99.90;;;;;;4164277;28;20184;-88
2023/07/15 11:08:19;;;;;;;2.90;1.10;;;26.30;99.90;;;;;;4164635;28;20315;-89
2023/07/15 11:10:30;;;;;;;3.92;1.30;;;26.40;99.90;;;;;;4164457;28;20203;-87
2023/07/15 11:12:32;;;;;;;5.20;1.40;;;26.40;99.90;;;;;;4180940;28;20163;-89
2023/07/15 11:14:32;;;;;;;4.38;1.30;;;26.20;99.90;;;;;;4181488;28;20180;-89
2023/07/15 11:16:36;;;;;;;5.10;1.73;;;26.10;99.90;;;;;;4164407;28;20163;-87
2023/07/15 11:18:37;;;;;;;5.57;1.50;;;26.10;99.90;;;;;;4163889;28;20200;-86
2023/07/15 11:20:38;;;;;;;7.80;1.48;;;26.30;99.90;;;;;;4181290;28;20661;-88
2023/07/15 11:22:39;;;;;;;6.32;1.58;;;26.10;99.90;;;;;;4165204;28;20235;-87
2023/07/15 11:24:39;;;;;;;4.47;1.30;;;26.10;99.90;;;;;;4164657;28;20187;-89
2023/07/15 11:26:41;;;;;;;7.25;1.42;;;26.10;99.90;;;;;;4164180;28;20184;-89
2023/07/15 11:28:49;;;;;;;3.15;1.38;;;25.80;99.90;;;;;;4180494;28;20222;-89
2023/07/15 11:30:50;;;;;;;4.47;1.45;;;25.80;99.90;;;;;;4180809;28;20567;-88
2023/07/15 11:32:54;;;;;;;3.38;1.27;;;25.80;99.90;;;;;;4164008;28;20160;-89
2023/07/15 11:34:55;;;;;;;5.20;1.30;;;25.90;99.90;;;;;;4180545;28;20536;-89
2023/07/15 11:36:56;;;;;;;4.13;1.60;;;26.10;99.90;;;;;;4166947;28;20172;-89
2023/07/15 11:39:00;;;;;;;5.25;1.55;;;26.10;99.90;;;;;;4167228;28;20307;-88
2023/07/15 11:41:01;;;;;;;5.55;1.42;;;25.80;99.90;;;;;;4183850;28;20184;-89
2023/07/15 11:43:05;;;;;;;5.57;1.20;;;25.70;99.90;;;;;;4167333;28;20668;-88
2023/07/15 11:45:07;;;;;;;2.55;1.08;;;25.60;99.90;;;;;;4183853;28;20246;-88
2023/07/15 11:47:09;;;;;;;4.85;1.35;;;25.60;99.90;;;;;;4184037;28;20180;-88
2023/07/15 11:49:10;;;;;;;3.60;1.35;;;25.60;99.90;;;;;;4184135;28;20199;-88
2023/07/15 11:51:11;;;;;;;4.28;1.40;;;25.60;99.90;;;;;;4183603;28;20258;-89
2023/07/15 11:53:32;;;;;;;7.10;1.17;;;25.70;99.90;;;;;;4184520;28;20636;-89
2023/07/15 11:55:37;;;;;;;6.82;1.52;;;25.80;99.90;;;;;;4200229;28;20186;-89
2023/07/15 11:57:45;;;;;;;3.67;1.20;;;25.80;99.90;;;;;;4199982;28;20166;-88
2023/07/15 11:59:49;;;;;;;6.07;1.40;;;25.90;99.90;;;;;;4183229;28;20199;-84
2023/07/15 12:01:49;;;;;;;4.72;1.60;;;25.90;99.90;;;;;;4182470;28;20602;-84
2023/07/15 12:03:51;;;;;;;6.72;1.77;;;26.00;99.90;;;;;;4182605;28;20183;-84
2023/07/15 12:05:52;;;;;;;6.22;1.33;;;26.40;99.90;;;;;;4199147;28;20167;-85
2023/07/15 12:07:53;;;;;;;7.93;1.45;;;26.70;99.90;;;;;;4182463;28;20171;-85
2023/07/15 12:10:07;;;;;;;6.85;1.50;;;26.80;99.90;;;;;;4183737;28;20337;-84
2023/07/15 12:12:08;;;;;;;4.30;1.30;;;26.80;99.90;;;;;;4199226;28;20182;-84
2023/07/15 12:14:09;;;;;;;5.25;1.40;;;26.60;99.90;;;;;;4166015;28;20263;-85
2023/07/15 12:16:10;;;;;;;4.63;1.60;;;26.70;99.90;;;;;;4183754;28;20164;-84
2023/07/15 12:18:12;;;;;;;5.05;1.60;;;26.70;99.90;;;;;;4199270;28;20246;-84
2023/07/15 12:20:12;;;;;;;6.57;1.38;;;26.80;99.90;;;;;;4199069;28;20171;-85
2023/07/15 12:22:13;;;;;;;5.10;1.30;;;26.80;99.90;;;;;;4182482;28;20188;-85
2023/07/15 12:24:14;;;;;;;8.13;1.30;;;26.70;99.90;;;;;;4165749;28;20180;-84
2023/07/15 12:26:14;;;;;;;6.45;1.30;;;26.80;99.90;;;;;;4183487;28;20167;-84
2023/07/15 12:28:15;;;;;;;8.43;1.50;;;26.80;99.90;;;;;;4181975;28;20196;-84
2023/07/15 12:30:16;;;;;;;4.45;1.10;;;26.70;99.90;;;;;;4182162;28;20218;-85
2023/07/15 12:32:16;;;;;;;6.53;1.27;;;26.50;99.90;;;;;;4182258;28;20211;-86
2023/07/15 12:34:17;;;;;;;7.28;1.50;;;26.60;99.90;;;;;;4183301;28;20254;-85
2023/07/15 12:36:18;;;;;;;7.63;1.38;;;26.50;99.90;;;;;;4183376;28;20172;-85
2023/07/15 12:38:18;;;;;;;7.50;1.27;;;26.70;99.90;;;;;;4181946;28;20184;-85
2023/07/15 12:40:19;;;;;;;5.97;1.20;;;26.70;99.90;;;;;;4182013;28;20175;-85
2023/07/15 12:42:20;;;;;;;1.90;1.10;;;27.10;99.90;;;;;;4165481;28;20538;-84
2023/07/15 12:44:20;;;;;;;4.28;1.20;;;27.50;99.90;;;;;;4165465;28;20230;-85
2023/07/15 12:46:21;;;;;;;7.93;1.50;;;27.40;99.90;;;;;;4183189;28;20156;-84
2023/07/15 12:48:22;;;;;;;12.23;1.52;;;27.00;99.90;;;;;;4198442;28;20199;-84
2023/07/15 12:50:23;;;;;;;3.75;1.45;;;27.00;99.90;;;;;;4183350;28;20221;-84
2023/07/15 12:52:24;;;;;;;14.05;1.42;;;26.80;99.90;;;;;;4198483;28;20574;-85
2023/07/15 12:54:24;;;;;;;4.82;1.20;;;26.70;99.90;;;;;;4165583;28;20187;-85
2023/07/15 12:56:25;;;;;;;3.53;1.00;;;26.60;99.90;;;;;;4165592;28;20168;-85
2023/07/15 12:58:26;;;;;;;3.38;1.02;;;26.30;99.90;;;;;;4165420;28;20201;-85
2023/07/15 13:00:26;;;;;;;3.65;0.95;;;26.30;99.90;;;;;;4182190;28;20202;-85
2023/07/15 13:02:27;;;;;;;6.72;1.10;;;26.40;99.90;;;;;;4165598;28;20176;-85
2023/07/15 13:04:28;;;;;;;2.63;1.20;;;26.40;99.90;;;;;;4182027;28;20255;-85
2023/07/15 13:06:28;;;;;;;3.90;1.10;;;26.70;99.90;;;;;;4181677;28;20182;-85
2023/07/15 13:08:29;;;;;;;2.25;1.13;;;26.90;99.90;;;;;;4181463;28;20188;-85
2023/07/15 13:10:30;;;;;;;6.70;1.02;;;26.80;99.90;;;;;;4165118;28;20218;-85
2023/07/15 13:12:30;;;;;;;2.90;1.20;;;26.90;99.90;;;;;;4181536;28;20210;-84
2023/07/15 13:14:31;;;;;;;2.65;1.25;;;26.90;99.90;;;;;;4181730;28;20227;-85
2023/07/15 13:16:32;;;;;;;2.58;1.20;;;27.10;99.90;;;;;;4181662;28;20175;-85
2023/07/15 13:18:32;;;;;;;3.28;1.20;;;27.20;99.90;;;;;;4181479;28;20282;-85
2023/07/15 13:20:33;;;;;;;4.13;1.10;;;27.50;99.90;;;;;;4165020;28;20176;-85